Time;durP1;ratioP1;P1;durP2;ratioP2;P2;SDS_P1;SDS_P2;PMS_P1;PMS_P2;Temp;Humidity;BMP_temperature;BMP_pressure;BME280_temperature;BME280_humidity;BME280_pressure;Samples;Min_cycle;Max_cycle;Signal;HPM_P1;HPM_P2
2024/01/07 00:02:20;;;;;;;16.02;9.25;;;;;;;;;;4922689;29;20051;-70
2024/01/07 00:04:46;;;;;;;16.02;10.30;;;;;;;;;;4911306;29;20332;-69
2024/01/07 00:07:12;;;;;;;17.42;9.85;;;;;;;;;;4942133;29;20050;-69
2024/01/07 00:09:38;;;;;;;15.60;9.57;;;;;;;;;;4928616;29;20142;-69
2024/01/07 00:12:04;;;;;;;14.77;9.75;;;;;;;;;;4947123;29;20578;-71
2024/01/07 00:14:30;;;;;;;14.80;10.18;;;;;;;;;;4947244;29;20043;-69
2024/01/07 00:16:56;;;;;;;14.57;9.38;;;;;;;;;;4924652;29;20051;-69
2024/01/07 00:19:22;;;;;;;14.02;9.18;;;;;;;;;;4939774;29;20094;-69
2024/01/07 00:21:49;;;;;;;13.95;8.93;;;;;;;;;;4919299;29;20060;-69
2024/01/07 00:24:15;;;;;;;17.88;10.18;;;;;;;;;;4924738;29;20070;-69
2024/01/07 00:26:41;;;;;;;15.68;9.57;;;;;;;;;;4924607;29;20055;-69
2024/01/07 00:29:07;;;;;;;12.88;8.43;;;;;;;;;;4926222;29;20078;-69
2024/01/07 00:31:33;;;;;;;14.10;9.02;;;;;;;;;;4943132;29;20055;-69
2024/01/07 00:33:59;;;;;;;15.18;9.05;;;;;;;;;;4929211;29;20043;-69
2024/01/07 00:36:25;;;;;;;12.40;9.23;;;;;;;;;;4930184;29;20559;-69
2024/01/07 00:38:51;;;;;;;15.18;8.65;;;;;;;;;;4942554;29;20131;-69
2024/01/07 00:41:17;;;;;;;14.45;9.02;;;;;;;;;;4928642;29;20047;-69
2024/01/07 00:43:43;;;;;;;12.27;8.35;;;;;;;;;;4929585;29;20402;-69
2024/01/07 00:46:09;;;;;;;13.52;9.13;;;;;;;;;;4922078;29;20054;-69
2024/01/07 00:48:35;;;;;;;16.13;9.85;;;;;;;;;;4938862;29;20855;-69
2024/01/07 00:51:01;;;;;;;12.95;9.65;;;;;;;;;;4925730;29;20070;-69
2024/01/07 00:53:28;;;;;;;15.90;10.60;;;;;;;;;;4943195;29;20047;-69
2024/01/07 00:55:54;;;;;;;16.20;10.15;;;;;;;;;;4927581;29;20201;-69
2024/01/07 00:58:20;;;;;;;13.70;9.20;;;;;;;;;;4945666;29;20156;-69
2024/01/07 01:00:46;;;;;;;17.55;10.02;;;;;;;;;;4924204;29;20232;-69
2024/01/07 01:03:12;;;;;;;17.10;9.95;;;;;;;;;;4930867;29;20047;-69
2024/01/07 01:05:38;;;;;;;15.43;9.23;;;;;;;;;;4923055;29;20058;-69
2024/01/07 01:08:04;;;;;;;13.80;9.82;;;;;;;;;;4936962;29;20058;-69
2024/01/07 01:10:30;;;;;;;14.68;9.40;;;;;;;;;;4928249;29;20047;-69
2024/01/07 01:12:56;;;;;;;18.77;11.15;;;;;;;;;;4920628;29;20047;-69
2024/01/07 01:15:22;;;;;;;16.50;10.18;;;;;;;;;;4928609;29;20054;-69
2024/01/07 01:17:48;;;;;;;17.10;11.48;;;;;;;;;;4930145;29;20043;-69
2024/01/07 01:20:14;;;;;;;16.33;10.30;;;;;;;;;;4928690;29;20043;-69
2024/01/07 01:22:40;;;;;;;16.77;10.43;;;;;;;;;;4930043;29;20921;-69
2024/01/07 01:25:06;;;;;;;15.80;10.40;;;;;;;;;;4924324;29;20405;-69
2024/01/07 01:27:32;;;;;;;19.48;11.32;;;;;;;;;;4928044;29;20054;-69
2024/01/07 01:29:58;;;;;;;19.17;10.60;;;;;;;;;;4928831;29;20634;-69
2024/01/07 01:32:24;;;;;;;17.27;11.35;;;;;;;;;;4909962;29;20119;-69
2024/01/07 01:34:50;;;;;;;19.88;11.35;;;;;;;;;;4910039;29;20069;-69
2024/01/07 01:37:16;;;;;;;19.00;11.45;;;;;;;;;;4910794;29;20083;-69
2024/01/07 01:39:42;;;;;;;16.80;9.77;;;;;;;;;;4910672;29;20078;-69
2024/01/07 01:42:08;;;;;;;14.77;9.88;;;;;;;;;;4910135;29;20123;-69
2024/01/07 01:44:34;;;;;;;16.90;10.05;;;;;;;;;;4910689;29;20059;-69
2024/01/07 01:47:01;;;;;;;15.02;9.93;;;;;;;;;;4910258;29;20047;-69
2024/01/07 01:49:27;;;;;;;14.95;8.70;;;;;;;;;;4927567;29;20081;-69
2024/01/07 01:51:54;;;;;;;15.27;9.52;;;;;;;;;;4910063;29;20375;-69
2024/01/07 01:54:21;;;;;;;17.58;9.43;;;;;;;;;;4927412;29;20047;-68
2024/01/07 01:56:48;;;;;;;16.50;9.95;;;;;;;;;;4910511;29;20067;-69
2024/01/07 01:59:14;;;;;;;15.85;9.25;;;;;;;;;;4910345;29;20897;-69
2024/01/07 02:01:41;;;;;;;12.82;9.18;;;;;;;;;;4910118;29;20158;-69
2024/01/07 02:04:07;;;;;;;15.50;9.10;;;;;;;;;;4910451;29;20055;-69
2024/01/07 02:06:33;;;;;;;13.10;9.07;;;;;;;;;;4909939;29;20668;-69
2024/01/07 02:08:59;;;;;;;17.52;10.63;;;;;;;;;;4910131;29;20047;-69
2024/01/07 02:11:25;;;;;;;17.48;10.02;;;;;;;;;;4909570;29;20044;-69
2024/01/07 02:13:51;;;;;;;16.08;8.95;;;;;;;;;;4910395;29;20408;-69
2024/01/07 02:16:17;;;;;;;15.73;10.05;;;;;;;;;;4926992;29;20769;-69
2024/01/07 02:18:44;;;;;;;16.20;8.63;;;;;;;;;;4927143;29;20044;-69
2024/01/07 02:21:11;;;;;;;16.55;9.43;;;;;;;;;;4909978;29;20059;-69
2024/01/07 02:23:37;;;;;;;13.45;8.60;;;;;;;;;;4909909;29;20059;-69
2024/01/07 02:26:03;;;;;;;14.52;8.95;;;;;;;;;;4909944;29;20578;-69
2024/01/07 02:28:33;;;;;;;13.80;8.93;;;;;;;;;;4909578;29;20486;-69
2024/01/07 02:30:59;;;;;;;17.23;9.75;;;;;;;;;;4922938;29;20847;-69
2024/01/07 02:33:26;;;;;;;13.38;8.55;;;;;;;;;;4907233;29;20135;-69
2024/01/07 02:35:52;;;;;;;14.55;9.30;;;;;;;;;;4908299;29;20519;-69
2024/01/07 02:38:18;;;;;;;16.35;8.68;;;;;;;;;;4925164;29;20055;-69
2024/01/07 02:40:44;;;;;;;16.80;9.32;;;;;;;;;;4904321;29;20058;-69
2024/01/07 02:43:10;;;;;;;13.65;8.30;;;;;;;;;;4909782;29;20196;-69
2024/01/07 02:45:36;;;;;;;13.00;8.13;;;;;;;;;;4907652;29;20064;-69
2024/01/07 02:48:02;;;;;;;13.73;8.73;;;;;;;;;;4918299;29;20048;-69
2024/01/07 02:50:28;;;;;;;17.10;10.60;;;;;;;;;;4917121;29;20048;-69
2024/01/07 02:52:54;;;;;;;13.57;8.45;;;;;;;;;;4920974;29;20039;-69
2024/01/07 02:55:21;;;;;;;12.88;8.60;;;;;;;;;;4902381;29;20408;-69
2024/01/07 02:57:47;;;;;;;13.35;8.07;;;;;;;;;;4902899;29;20047;-69
2024/01/07 03:00:13;;;;;;;12.05;8.18;;;;;;;;;;4905717;29;20058;-69
2024/01/07 03:02:39;;;;;;;10.82;7.57;;;;;;;;;;4922640;29;20431;-69
2024/01/07 03:05:05;;;;;;;10.85;7.47;;;;;;;;;;4908728;29;20062;-69
2024/01/07 03:07:31;;;;;;;14.45;8.27;;;;;;;;;;4915955;29;20055;-69
2024/01/07 03:09:57;;;;;;;13.27;7.35;;;;;;;;;;4895655;29;20487;-69
2024/01/07 03:12:23;;;;;;;13.07;7.32;;;;;;;;;;4903039;29;20044;-69
2024/01/07 03:14:49;;;;;;;12.35;7.72;;;;;;;;;;4909161;29;20385;-68
2024/01/07 03:17:17;;;;;;;12.00;7.40;;;;;;;;;;4908592;29;20082;-69
2024/01/07 03:19:43;;;;;;;13.63;7.38;;;;;;;;;;4907144;29;20098;-69
2024/01/07 03:22:09;;;;;;;10.68;6.82;;;;;;;;;;4925688;29;20715;-69
2024/01/07 03:24:35;;;;;;;8.15;6.38;;;;;;;;;;4893057;29;20566;-69
2024/01/07 03:27:01;;;;;;;11.65;6.18;;;;;;;;;;4921212;29;20051;-69
2024/01/07 03:29:27;;;;;;;8.85;6.20;;;;;;;;;;4905348;29;20142;-69
2024/01/07 03:31:53;;;;;;;10.63;6.75;;;;;;;;;;4917673;29;20055;-69
2024/01/07 03:34:19;;;;;;;10.65;6.20;;;;;;;;;;4931075;29;20511;-69
2024/01/07 03:36:45;;;;;;;9.07;6.07;;;;;;;;;;4923119;29;20578;-69
2024/01/07 03:39:11;;;;;;;8.35;6.22;;;;;;;;;;4926569;29;20046;-69
2024/01/07 03:41:37;;;;;;;9.43;6.10;;;;;;;;;;4925880;29;20559;-69
2024/01/07 03:44:03;;;;;;;10.23;6.63;;;;;;;;;;4919438;29;20048;-69
2024/01/07 03:46:30;;;;;;;8.63;6.00;;;;;;;;;;4920940;29;20047;-69
2024/01/07 03:48:56;;;;;;;10.80;6.03;;;;;;;;;;4923163;29;20419;-69
2024/01/07 03:51:22;;;;;;;8.90;6.05;;;;;;;;;;4922447;29;20055;-69
2024/01/07 03:53:48;;;;;;;10.23;6.35;;;;;;;;;;4924079;29;20170;-69
2024/01/07 03:56:14;;;;;;;8.05;5.60;;;;;;;;;;4923734;29;20051;-69
2024/01/07 03:58:40;;;;;;;10.38;6.63;;;;;;;;;;4941911;29;20090;-69
2024/01/07 04:01:06;;;;;;;9.50;6.35;;;;;;;;;;4923758;29;20090;-69
2024/01/07 04:03:32;;;;;;;9.10;5.25;;;;;;;;;;4920727;29;20486;-69
2024/01/07 04:05:58;;;;;;;9.45;6.32;;;;;;;;;;4943207;29;20039;-69
2024/01/07 04:08:24;;;;;;;8.55;5.40;;;;;;;;;;4926425;29;20043;-69
2024/01/07 04:10:50;;;;;;;9.82;5.45;;;;;;;;;;4920886;29;20047;-68
2024/01/07 04:13:16;;;;;;;9.02;5.45;;;;;;;;;;4921007;29;20043;-69
2024/01/07 04:15:42;;;;;;;7.30;5.25;;;;;;;;;;4916259;29;20071;-69
2024/01/07 04:18:08;;;;;;;9.40;5.53;;;;;;;;;;4926212;29;20929;-69
2024/01/07 04:20:34;;;;;;;10.25;5.28;;;;;;;;;;4921846;29;20044;-69
2024/01/07 04:23:00;;;;;;;9.80;5.85;;;;;;;;;;4925057;29;20507;-69
2024/01/07 04:25:26;;;;;;;11.55;5.80;;;;;;;;;;4926050;29;20190;-69
2024/01/07 04:27:52;;;;;;;10.68;5.38;;;;;;;;;;4923878;29;20079;-69
2024/01/07 04:30:18;;;;;;;8.25;5.30;;;;;;;;;;4942079;29;20491;-69
2024/01/07 04:32:44;;;;;;;6.95;5.10;;;;;;;;;;4925206;29;20078;-69
2024/01/07 04:35:10;;;;;;;7.95;5.68;;;;;;;;;;4923679;29;20051;-69
2024/01/07 04:37:38;;;;;;;9.52;5.03;;;;;;;;;;4916866;29;20039;-69
2024/01/07 04:40:04;;;;;;;11.65;5.90;;;;;;;;;;4922714;29;20146;-69
2024/01/07 04:42:30;;;;;;;8.60;4.93;;;;;;;;;;4920208;29;20503;-68
2024/01/07 04:44:57;;;;;;;7.82;5.30;;;;;;;;;;4922596;29;20083;-69
2024/01/07 04:47:30;;;;;;;8.80;5.30;;;;;;;;;;4911278;29;20485;-69
2024/01/07 04:49:56;;;;;;;8.80;5.25;;;;;;;;;;4925164;29;20842;-69
2024/01/07 04:52:23;;;;;;;7.15;4.65;;;;;;;;;;4925510;29;20087;-69
2024/01/07 04:54:50;;;;;;;5.97;4.65;;;;;;;;;;4922443;29;20046;-69
2024/01/07 04:57:16;;;;;;;7.50;5.10;;;;;;;;;;4930393;29;20042;-69
2024/01/07 04:59:42;;;;;;;8.63;4.80;;;;;;;;;;4926541;29;20117;-69
2024/01/07 05:02:08;;;;;;;6.43;4.60;;;;;;;;;;4914020;29;20057;-69
2024/01/07 05:04:35;;;;;;;6.75;4.53;;;;;;;;;;4917155;29;20047;-69
2024/01/07 05:07:01;;;;;;;8.30;4.78;;;;;;;;;;4929598;29;20138;-69
2024/01/07 05:09:27;;;;;;;5.82;4.60;;;;;;;;;;4941419;29;20105;-69
2024/01/07 05:11:53;;;;;;;10.60;4.75;;;;;;;;;;4922778;29;20058;-69
2024/01/07 05:14:19;;;;;;;5.57;4.13;;;;;;;;;;4926344;29;20043;-69
2024/01/07 05:16:45;;;;;;;6.20;3.90;;;;;;;;;;4924319;29;20510;-69
2024/01/07 05:19:11;;;;;;;6.40;4.20;;;;;;;;;;4929075;29;20058;-69
2024/01/07 05:21:37;;;;;;;6.40;4.28;;;;;;;;;;4929373;29;20051;-69
2024/01/07 05:24:04;;;;;;;5.45;4.10;;;;;;;;;;4927468;29;20047;-69
2024/01/07 05:26:30;;;;;;;6.50;3.95;;;;;;;;;;4920636;29;20495;-69
2024/01/07 05:28:56;;;;;;;6.28;4.50;;;;;;;;;;4922643;29;20459;-69
2024/01/07 05:31:22;;;;;;;5.05;3.67;;;;;;;;;;4943008;29;20047;-69
2024/01/07 05:33:48;;;;;;;4.95;3.25;;;;;;;;;;4927751;29;20130;-69
2024/01/07 05:36:15;;;;;;;6.93;4.43;;;0.30;99.90;;;;;;4945054;29;20384;-69
2024/01/07 05:38:44;;;;;;;4.30;3.50;;;;;;;;;;4930395;29;20051;-69
2024/01/07 05:41:10;;;;;;;6.28;3.60;;;;;;;;;;4929422;29;20047;-69
2024/01/07 05:43:36;;;;;;;6.85;3.58;;;0.40;99.90;;;;;;4946733;29;20043;-69
2024/01/07 05:46:03;;;;;;;4.15;3.20;;;;;;;;;;4928761;29;20114;-69
2024/01/07 05:48:29;;;;;;;5.72;3.08;;;;;;;;;;4944364;29;20114;-69
2024/01/07 05:50:55;;;;;;;7.10;3.17;;;;;;;;;;4928756;29;20055;-69
2024/01/07 05:53:21;;;;;;;4.40;2.97;;;;;;;;;;4924538;29;20047;-68
2024/01/07 05:55:47;;;;;;;4.43;3.03;;;;;;;;;;4928594;29;20584;-68
2024/01/07 05:58:13;;;;;;;4.38;3.25;;;;;;;;;;4947460;29;20459;-68
2024/01/07 06:00:39;;;;;;;4.75;2.92;;;;;;;;;;4925407;29;20499;-69
2024/01/07 06:03:06;;;;;;;3.90;2.35;;;;;;;;;;4927596;29;20059;-69
2024/01/07 06:05:32;;;;;;;3.17;2.65;;;;;;;;;;4929306;29;20850;-68
2024/01/07 06:07:58;;;;;;;3.42;2.72;;;;;;;;;;4927369;29;20051;-69
2024/01/07 06:10:24;;;;;;;4.45;2.67;;;;;;;;;;4932400;29;20102;-69
2024/01/07 06:12:50;;;;;;;3.63;3.08;;;;;;;;;;4929001;29;20043;-69
2024/01/07 06:15:17;;;;;;;3.78;2.50;;;;;;;;;;4946036;29;20151;-68
2024/01/07 06:17:43;;;;;;;5.20;2.28;;;;;;;;;;4945393;29;20600;-68
2024/01/07 06:20:09;;;;;;;4.45;2.60;;;;;;;;;;4927815;29;20043;-68
2024/01/07 06:22:35;;;;;;;4.55;2.45;;;;;;;;;;4928514;29;20193;-69
2024/01/07 06:25:01;;;;;;;5.25;2.70;;;;;;;;;;4929418;29;20563;-68
2024/01/07 06:27:27;;;;;;;3.20;2.17;;;;;;;;;;4927387;29;20114;-69
2024/01/07 06:29:53;;;;;;;3.38;2.25;;;;;;;;;;4923239;29;20510;-69
2024/01/07 06:32:19;;;;;;;2.75;2.22;;;;;;;;;;4926843;29;20578;-69
2024/01/07 06:34:46;;;;;;;5.88;2.25;;;;;;;;;;4945982;29;20079;-69
2024/01/07 06:37:12;;;;;;;3.63;2.60;;;;;;;;;;4912867;29;20051;-69
2024/01/07 06:39:38;;;;;;;3.00;2.50;;;;;;;;;;4928040;29;20039;-69
2024/01/07 06:42:05;;;;;;;4.03;2.67;;;;;;;;;;4928107;29;20055;-69
2024/01/07 06:44:31;;;;;;;5.68;2.80;;;;;;;;;;4922549;29;20055;-69
2024/01/07 06:46:57;;;;;;;5.70;2.78;;;;;;;;;;4928038;28;20051;-69
2024/01/07 06:49:23;;;;;;;4.82;2.47;;;;;;;;;;4923971;29;20079;-69
2024/01/07 06:51:49;;;;;;;3.95;2.30;;;;;;;;;;4925314;29;20087;-69
2024/01/07 06:54:15;;;;;;;4.43;2.35;;;;;;;;;;4928222;29;20190;-69
2024/01/07 06:56:41;;;;;;;3.47;2.60;;;;;;;;;;4912375;29;20802;-69
2024/01/07 06:59:07;;;;;;;2.30;2.05;;;;;;;;;;4922894;29;20051;-69
2024/01/07 07:01:33;;;;;;;3.22;2.47;;;;;;;;;;4927837;29;20098;-69
2024/01/07 07:04:00;;;;;;;3.42;2.28;;;;;;;;;;4945539;29;20079;-69
2024/01/07 07:06:26;;;;;;;4.40;2.40;;;;;;;;;;4926955;29;20055;-69
2024/01/07 07:08:52;;;;;;;5.30;2.60;;;;;;;;;;4920554;29;20047;-69
2024/01/07 07:11:19;;;;;;;4.10;2.55;;;;;;;;;;4925983;29;20051;-69
2024/01/07 07:13:45;;;;;;;4.80;2.15;;;;;;;;;;4927353;29;20063;-69
2024/01/07 07:16:12;;;;;;;4.55;2.33;;;;;;;;;;4943841;29;20045;-69
2024/01/07 07:18:37;;;;;;;3.40;2.35;;;;;;;;;;4911642;29;20095;-69
2024/01/07 07:21:04;;;;;;;4.97;2.58;;;;;;;;;;4943953;28;20035;-68
2024/01/07 07:23:30;;;;;;;3.13;2.08;;;;;;;;;;4924929;29;20039;-69
2024/01/07 07:25:56;;;;;;;2.58;2.28;;;;;;;;;;4942418;29;20487;-69
2024/01/07 07:28:22;;;;;;;6.63;3.08;;;;;;;;;;4926874;29;20058;-69
2024/01/07 07:30:48;;;;;;;4.82;2.22;;;;;;;;;;4925200;29;20162;-69
2024/01/07 07:33:14;;;;;;;3.58;2.10;;;;;;;;;;4927661;29;20059;-69
2024/01/07 07:35:41;;;;;;;5.60;1.98;;;;;;;;;;4944426;29;20058;-69
2024/01/07 07:38:08;;;;;;;4.63;2.25;;;;;;;;;;4932347;29;20062;-68
2024/01/07 07:40:34;;;;;;;3.28;2.00;;;;;;;;;;4925891;29;20047;-69
2024/01/07 07:43:00;;;;;;;4.40;2.47;;;;;;;;;;4944128;29;20043;-69
2024/01/07 07:45:26;;;;;;;3.17;2.47;;;;;;;;;;4927367;29;20057;-69
2024/01/07 07:47:52;;;;;;;4.10;2.20;;;;;;;;;;4945142;28;20055;-69
2024/01/07 07:50:18;;;;;;;2.60;1.90;;;;;;;;;;4937333;29;20080;-69
2024/01/07 07:52:44;;;;;;;6.57;2.13;;;;;;;;;;4927936;28;20051;-69
2024/01/07 07:55:10;;;;;;;4.88;2.58;;;;;;;;;;4927440;29;20138;-69
2024/01/07 07:57:37;;;;;;;5.88;2.60;;;;;;;;;;4946052;28;20046;-69
2024/01/07 08:00:04;;;;;;;3.17;2.45;;;;;;;;;;4928386;29;20495;-69
2024/01/07 08:02:30;;;;;;;4.82;2.33;;;;;;;;;;4926963;29;20051;-69
2024/01/07 08:04:56;;;;;;;4.70;2.50;;;;;;;;;;4926559;29;20043;-69
2024/01/07 08:07:22;;;;;;;2.63;2.42;;;;;;;;;;4922924;29;20114;-69
2024/01/07 08:09:49;;;;;;;3.22;2.30;;;;;;;;;;4927205;29;20445;-68
2024/01/07 08:12:15;;;;;;;4.22;1.85;;;;;;;;;;4943449;29;20600;-69
2024/01/07 08:14:41;;;;;;;3.90;2.30;;;;;;;;;;4926396;29;20089;-69
2024/01/07 08:17:07;;;;;;;3.67;2.30;;;;;;;;;;4926091;29;20519;-69
2024/01/07 08:19:33;;;;;;;3.95;1.95;;;;;;;;;;4942275;29;20047;-69
2024/01/07 08:21:59;;;;;;;5.40;2.38;;;;;;;;;;4941596;29;20074;-70
2024/01/07 08:24:25;;;;;;;3.70;2.05;;;;;;;;;;4942644;29;20043;-69
2024/01/07 08:26:51;;;;;;;4.53;2.40;;;;;;;;;;4942716;29;20050;-69
2024/01/07 08:29:18;;;;;;;8.98;2.53;;;;;;;;;;4924001;28;20047;-69
2024/01/07 08:31:44;;;;;;;2.83;1.98;;;;;;;;;;4928379;29;20145;-69
2024/01/07 08:34:10;;;;;;;2.28;2.08;;;;;;;;;;4928423;29;20131;-69
2024/01/07 08:36:36;;;;;;;4.45;2.72;;;;;;;;;;4922510;29;20051;-69
2024/01/07 08:39:02;;;;;;;2.53;1.85;;;;;;;;;;4928069;29;20079;-70
2024/01/07 08:41:28;;;;;;;4.60;2.53;;;;;;;;;;4934136;29;20043;-70
2024/01/07 08:43:54;;;;;;;7.07;2.33;;;;;;;;;;4928164;29;20047;-69
2024/01/07 08:46:23;;;;;;;2.50;1.85;;;;;;;;;;4912448;29;20483;-69
2024/01/07 08:48:49;;;;;;;2.80;2.13;;;;;;;;;;4945532;28;20047;-69
2024/01/07 08:51:15;;;;;;;2.60;2.40;;;;;;;;;;4931410;29;20100;-69
2024/01/07 08:53:41;;;;;;;2.30;1.88;;;;;;;;;;4933499;28;20070;-69
2024/01/07 08:56:10;;;;;;;2.42;2.00;;;;;;;;;;4928172;29;20043;-69
2024/01/07 08:58:37;;;;;;;3.92;1.95;;;;;;;;;;4919774;29;20046;-69
2024/01/07 09:01:03;;;;;;;4.13;2.00;;;;;;;;;;4928988;29;20058;-69
2024/01/07 09:03:29;;;;;;;2.78;2.30;;;;;;;;;;4951445;28;20047;-70
2024/01/07 09:05:55;;;;;;;3.92;1.70;;;;;;;;;;4928409;29;20043;-70
2024/01/07 09:08:22;;;;;;;3.35;2.30;;;;;;;;;;4928281;28;20043;-70
2024/01/07 09:10:48;;;;;;;5.22;3.17;;;;;;;;;;4945243;28;20101;-70
2024/01/07 09:13:14;;;;;;;3.60;1.88;;;;;;;;;;4927787;29;20531;-71
2024/01/07 09:15:40;;;;;;;3.30;2.03;;;;;;;;;;4928037;29;20053;-70
2024/01/07 09:18:06;;;;;;;4.00;1.77;;;;;;;;;;4944496;29;20054;-70
2024/01/07 09:20:33;;;;;;;5.32;2.47;;;;;;;;;;4943566;29;20047;-70
2024/01/07 09:22:59;;;;;;;2.42;1.73;;;;;;;;;;4927206;29;20051;-70
2024/01/07 09:25:26;;;;;;;4.38;1.95;;;;;;;;;;4927063;29;20669;-71
2024/01/07 09:27:52;;;;;;;5.07;2.28;;;;;;;;;;4926203;29;20059;-70
2024/01/07 09:30:18;;;;;;;2.83;1.70;;;;;;;;;;4945387;29;20051;-70
2024/01/07 09:32:44;;;;;;;3.30;1.63;;;;;;;;;;4944964;29;20051;-70
2024/01/07 09:35:10;;;;;;;3.63;2.55;;;;;;;;;;4924823;29;20563;-71
2024/01/07 09:37:36;;;;;;;2.03;1.83;;;;;;;;;;4927314;29;20090;-70
2024/01/07 09:40:05;;;;;;;3.45;2.03;;;;;;;;;;4928273;28;20126;-69
2024/01/07 09:42:31;;;;;;;4.45;1.70;;;;;;;;;;4929229;29;20151;-70
2024/01/07 09:44:57;;;;;;;4.53;2.05;;;;;;;;;;4946457;29;20805;-69
2024/01/07 09:47:23;;;;;;;1.55;1.30;;;;;;;;;;4929277;29;20054;-69
2024/01/07 09:49:49;;;;;;;1.55;1.45;;;;;;;;;;4928027;29;20054;-69
2024/01/07 09:52:17;;;;;;;2.42;1.88;;;;;;;;;;4912789;29;20055;-69
2024/01/07 09:54:43;;;;;;;2.00;1.80;;;;;;;;;;4945192;29;20126;-69
2024/01/07 09:57:10;;;;;;;1.77;1.67;;;;;;;;;;4928738;29;20201;-69
2024/01/07 09:59:36;;;;;;;2.17;1.85;;;;;;;;;;4928658;29;20047;-69
2024/01/07 10:02:03;;;;;;;2.40;1.50;;;;;;;;;;4945224;28;20158;-69
2024/01/07 10:04:30;;;;;;;2.35;1.83;;;;;;;;;;4945991;29;20047;-69
2024/01/07 10:06:56;;;;;;;3.03;1.92;;;;;;;;;;4945618;29;20051;-69
2024/01/07 10:09:26;;;;;;;4.60;1.70;;;;;;;;;;4946178;28;20566;-69
2024/01/07 10:11:53;;;;;;;4.55;1.88;;;;;;;;;;4944816;29;20062;-69
2024/01/07 10:14:22;;;;;;;2.97;1.77;;;;;;;;;;4945032;28;20928;-69
2024/01/07 10:16:49;;;;;;;4.00;1.77;;;;;;;;;;4945372;28;20050;-69
2024/01/07 10:19:20;;;;;;;4.13;2.28;;;;;;;;;;4928640;28;20046;-69
2024/01/07 10:21:46;;;;;;;4.05;2.30;;;;;;;;;;4935087;29;20795;-69
2024/01/07 10:24:13;;;;;;;4.93;2.70;;;;;;;;;;4922246;29;20899;-69
2024/01/07 10:26:40;;;;;;;3.75;2.00;;;;;;;;;;4945818;29;20832;-69
2024/01/07 10:29:06;;;;;;;4.03;1.67;;;;;;;;;;4928172;29;20050;-69
2024/01/07 10:31:32;;;;;;;2.47;1.67;;;;;;;;;;4927138;29;20051;-70
2024/01/07 10:33:58;;;;;;;1.80;1.50;;;;;;;;;;4924151;29;20486;-69
2024/01/07 10:36:25;;;;;;;3.63;1.90;;;;;;;;;;4924107;29;20050;-69
2024/01/07 10:38:51;;;;;;;3.03;1.77;;;;;;;;;;4927445;29;20069;-69
2024/01/07 10:41:21;;;;;;;2.10;1.60;;;;;;;;;;4926808;29;20050;-69
2024/01/07 10:43:47;;;;;;;4.57;1.63;;;;;;;;;;4926368;29;20451;-69
2024/01/07 10:46:14;;;;;;;2.00;1.70;;;;;;;;;;4945266;29;20448;-69
2024/01/07 10:48:44;;;;;;;3.05;2.20;;;;;;;;;;4925275;29;20498;-69
2024/01/07 10:51:11;;;;;;;4.13;2.20;;;;;;;;;;4926980;28;20053;-69
2024/01/07 10:53:39;;;;;;;5.07;2.00;;;;;;;;;;4931610;28;20039;-69
2024/01/07 10:56:05;;;;;;;3.85;1.90;;;;;;;;;;4925716;29;20084;-69
2024/01/07 10:58:36;;;;;;;5.15;2.20;;;;;;;;;;4927631;29;20054;-69
2024/01/07 11:01:04;;;;;;;2.92;2.17;;;;;;;;;;4945469;29;20042;-69
2024/01/07 11:03:37;;;;;;;1.83;1.67;;;;;;;;;;4925696;29;20043;-69
2024/01/07 11:06:09;;;;;;;4.78;2.45;;;;;;;;;;4912171;29;20058;-69
2024/01/07 11:08:38;;;;;;;4.20;2.35;;;;;;;;;;4911306;29;20522;-69
2024/01/07 11:11:06;;;;;;;3.13;2.40;;;;;;;;;;4927034;29;20110;-69
2024/01/07 11:13:39;;;;;;;1.90;1.60;;;;;;;;;;4926104;29;20521;-69
2024/01/07 11:16:11;;;;;;;3.17;1.77;;;1.20;99.90;;;;;;4925228;28;20547;-69
2024/01/07 11:18:54;;;;;;;2.47;2.28;;;;;;;;;;4945121;29;20084;-69
2024/01/07 11:21:21;;;;;;;2.83;2.20;;;;;;;;;;4926233;29;20039;-69
2024/01/07 11:23:47;;;;;;;4.25;1.70;;;;;;;;;;4926933;29;20081;-69
2024/01/07 11:26:13;;;;;;;3.60;2.08;;;;;;;;;;4944529;29;20142;-69
2024/01/07 11:28:52;;;;;;;1.85;1.67;;;;;;;;;;4927759;29;20150;-69
2024/01/07 11:31:20;;;;;;;1.88;1.73;;;;;;;;;;4953213;28;20055;-69
2024/01/07 11:33:47;;;;;;;2.88;2.10;;;;;;;;;;4924111;29;20876;-69
2024/01/07 11:36:14;;;;;;;2.85;1.85;;;;;;;;;;4925896;29;20058;-69
2024/01/07 11:38:44;;;;;;;3.78;2.22;;;;;;;;;;4941557;28;20046;-69
2024/01/07 11:41:10;;;;;;;5.28;2.03;;;;;;;;;;4923419;29;20048;-69
2024/01/07 11:43:36;;;;;;;3.25;2.00;;;;;;;;;;4926402;29;20569;-70
2024/01/07 11:46:02;;;;;;;4.80;2.17;;;;;;;;;;4925640;29;20047;-69
2024/01/07 11:48:28;;;;;;;3.00;1.85;;;;;;;;;;4931341;29;20638;-69
2024/01/07 11:50:54;;;;;;;2.78;1.90;;;;;;;;;;4923424;29;20047;-69
2024/01/07 11:53:21;;;;;;;5.47;2.28;;;;;;;;;;4943379;28;20039;-69
2024/01/07 11:55:47;;;;;;;5.03;1.98;;;;;;;;;;4931077;29;20055;-69
2024/01/07 11:58:13;;;;;;;4.65;2.42;;;;;;;;;;4927003;28;20050;-70
2024/01/07 12:00:39;;;;;;;1.92;1.75;;;;;;;;;;4934614;28;20402;-69
2024/01/07 12:03:05;;;;;;;3.65;1.95;;;;;;;;;;4926910;29;20050;-69
2024/01/07 12:05:31;;;;;;;4.28;2.60;;;;;;;;;;4928148;29;20075;-69
2024/01/07 12:07:58;;;;;;;5.10;2.33;;;;;;;;;;4930297;29;20051;-69
2024/01/07 12:10:24;;;;;;;2.88;2.20;;;;;;;;;;4933066;29;20447;-69
2024/01/07 12:12:53;;;;;;;2.97;1.60;;;;;;;;;;4948325;28;20051;-69
2024/01/07 12:15:21;;;;;;;4.50;2.10;;;;;;;;;;4930658;29;20590;-69
2024/01/07 12:17:58;;;;;;;5.40;2.88;;;;;;;;;;4946197;28;20095;-69
2024/01/07 12:20:24;;;;;;;3.85;2.53;;;;;;;;;;4931128;29;20039;-69
2024/01/07 12:22:50;;;;;;;2.78;2.30;;;;;;;;;;4936630;29;20082;-69
2024/01/07 12:25:21;;;;;;;4.65;2.28;;;;;;;;;;4948372;29;20188;-69
2024/01/07 12:27:52;;;;;;;3.75;1.95;;;;;;;;;;4924742;29;20106;-69
2024/01/07 12:30:18;;;;;;;3.78;2.30;;;;;;;;;;4931228;29;20498;-69
2024/01/07 12:32:44;;;;;;;3.65;2.33;;;;;;;;;;4926664;28;20372;-70
2024/01/07 12:35:11;;;;;;;3.92;2.17;;;;;;;;;;4948083;28;20133;-69
2024/01/07 12:37:37;;;;;;;3.75;2.70;;;;;;;;;;4930950;29;20046;-69
2024/01/07 12:40:04;;;;;;;2.42;2.00;;;;;;;;;;4948230;29;20050;-69
2024/01/07 12:42:30;;;;;;;4.00;1.92;;;;;;;;;;4929798;29;20090;-69
2024/01/07 12:44:56;;;;;;;3.92;2.33;;;;;;;;;;4930638;29;20419;-69
2024/01/07 12:47:23;;;;;;;5.15;2.55;;;;;;;;;;4947584;28;20043;-69
2024/01/07 12:49:49;;;;;;;6.22;2.83;;;;;;;;;;4930318;29;20051;-69
2024/01/07 12:52:16;;;;;;;4.32;2.70;;;;;;;;;;4929702;29;20126;-69
2024/01/07 12:54:42;;;;;;;4.65;2.30;;;;;;;;;;4929454;29;20039;-69
2024/01/07 12:57:08;;;;;;;3.63;2.63;;;;;;;;;;4929873;29;20050;-69
2024/01/07 12:59:34;;;;;;;3.50;1.95;;;;;;;;;;4945856;29;20054;-69
2024/01/07 13:02:00;;;;;;;2.60;2.40;;;;;;;;;;4946931;28;20062;-69
2024/01/07 13:04:26;;;;;;;5.43;2.97;;;;;;;;;;4929634;29;20477;-70
2024/01/07 13:06:52;;;;;;;6.18;2.83;;;;;;;;;;4933473;28;20049;-69
2024/01/07 13:09:18;;;;;;;7.28;2.45;;;;;;;;;;4948210;28;20047;-69
2024/01/07 13:11:44;;;;;;;4.95;2.58;;;;;;;;;;4929298;29;20049;-69
2024/01/07 13:14:10;;;;;;;6.43;2.42;;;;;;;;;;4947404;29;20043;-69
2024/01/07 13:16:36;;;;;;;4.97;3.00;;;;;;;;;;4928524;29;20071;-69
2024/01/07 13:19:04;;;;;;;7.55;2.75;;;;;;;;;;4928927;29;20083;-69
2024/01/07 13:21:30;;;;;;;6.28;2.85;;;;;;;;;;4921806;29;20522;-69
2024/01/07 13:23:59;;;;;;;6.93;2.88;;;;;;;;;;4924890;29;20093;-69
2024/01/07 13:26:25;;;;;;;5.88;3.00;;;;;;;;;;4926512;29;20055;-69
2024/01/07 13:28:51;;;;;;;4.90;2.90;;;;;;;;;;4927944;29;20486;-70
2024/01/07 13:31:17;;;;;;;5.18;2.90;;;;;;;;;;4913291;29;20051;-69
2024/01/07 13:33:43;;;;;;;4.82;3.00;;;;;;;;;;4911625;29;20078;-69
2024/01/07 13:36:12;;;;;;;3.53;3.03;;;;;;;;;;4944402;28;20047;-70
2024/01/07 13:38:41;;;;;;;4.38;2.65;;;;;;;;;;4944345;28;20061;-69
2024/01/07 13:41:11;;;;;;;6.63;2.75;;;;;;;;;;4924299;29;20047;-69
2024/01/07 13:43:40;;;;;;;4.18;3.13;;;;;;;;;;4932276;28;20736;-69
2024/01/07 13:46:06;;;;;;;3.85;2.78;;;;;;;;;;4921724;29;20134;-69
2024/01/07 13:48:32;;;;;;;5.63;3.00;;;;;;;;;;4925526;29;20053;-69
2024/01/07 13:50:58;;;;;;;3.83;2.67;;;;;;;;;;4928793;29;20079;-69
2024/01/07 13:53:24;;;;;;;6.18;3.38;;;;;;;;;;4924412;28;20108;-69
2024/01/07 13:55:50;;;;;;;6.68;3.22;;;;;;;;;;4930549;29;20071;-69
2024/01/07 13:58:16;;;;;;;4.70;3.30;;;;;;;;;;4933253;28;20043;-69
2024/01/07 14:00:42;;;;;;;7.10;2.90;;;;;;;;;;4931400;29;20134;-70
2024/01/07 14:03:09;;;;;;;3.75;2.80;;;;;;;;;;4930991;29;20057;-69
2024/01/07 14:05:35;;;;;;;4.68;2.97;;;;;;;;;;4927654;29;20047;-69
2024/01/07 14:08:01;;;;;;;4.03;3.17;;;;;;;;;;4913884;29;20055;-70
2024/01/07 14:10:27;;;;;;;4.38;3.10;;;;;;;;;;4929317;28;20087;-70
2024/01/07 14:12:53;;;;;;;4.57;3.40;;;;;;;;;;4909170;29;20142;-70
2024/01/07 14:15:19;;;;;;;5.65;3.70;;;;;;;;;;4929150;29;20065;-69
2024/01/07 14:17:45;;;;;;;6.07;3.70;;;;;;;;;;4929068;29;20686;-70
2024/01/07 14:20:11;;;;;;;5.25;3.20;;;;;;;;;;4927497;29;20485;-69
2024/01/07 14:22:37;;;;;;;6.00;3.60;;;;;;;;;;4927030;29;20046;-69
2024/01/07 14:25:03;;;;;;;5.03;3.38;;;;;;;;;;4926977;29;20047;-69
2024/01/07 14:27:29;;;;;;;5.85;3.25;;;;;;;;;;4926112;29;20094;-69
2024/01/07 14:29:56;;;;;;;6.43;3.72;;;;;;;;;;4910733;29;20078;-70
2024/01/07 14:32:23;;;;;;;9.57;3.97;;;;;;;;;;4926631;29;20507;-69
2024/01/07 14:34:50;;;;;;;5.47;3.20;;;;;;;;;;4920246;29;20039;-71